Time;durP1;ratioP1;P1;durP2;ratioP2;P2;SDS_P1;SDS_P2;PMS_P1;PMS_P2;Temp;Humidity;BMP_temperature;BMP_pressure;BME280_temperature;BME280_humidity;BME280_pressure;Samples;Min_cycle;Max_cycle;Signal;HPM_P1;HPM_P2
2021/12/20 00:01:22;;;;;;;7.50;3.03;;;6.30;99.90;;;4.58;100.00;102291.81;2566542;30;138302;-40
2021/12/20 00:03:50;;;;;;;8.40;2.65;;;6.30;99.90;;;4.58;100.00;102292.66;2568138;30;138389;-41
2021/12/20 00:06:19;;;;;;;8.70;3.00;;;6.30;99.90;;;4.59;100.00;102291.66;2568329;30;139282;-41
2021/12/20 00:08:46;;;;;;;7.95;3.20;;;6.30;99.90;;;4.57;100.00;102290.09;2566861;30;138063;-40
2021/12/20 00:11:14;;;;;;;6.60;2.90;;;6.30;99.90;;;4.59;100.00;102280.84;2568293;30;137271;-41
2021/12/20 00:13:41;;;;;;;5.90;2.83;;;6.30;99.90;;;4.57;100.00;102290.09;2568752;30;137413;-41
2021/12/20 00:16:09;;;;;;;8.60;2.75;;;6.30;99.90;;;4.60;100.00;102281.72;2566003;30;138373;-40
2021/12/20 00:18:36;;;;;;;7.00;2.50;;;6.20;99.90;;;4.55;100.00;102282.13;2569244;30;136942;-41
2021/12/20 00:21:04;;;;;;;6.82;2.85;;;6.20;99.90;;;4.53;100.00;102284.09;2568461;30;138383;-40
2021/12/20 00:23:31;;;;;;;4.88;2.72;;;6.30;99.90;;;4.52;100.00;102286.97;2568499;30;138255;-40
2021/12/20 00:25:59;;;;;;;9.38;2.90;;;6.20;99.90;;;4.53;100.00;102285.97;2567541;30;138980;-41
2021/12/20 00:28:26;;;;;;;8.10;3.30;;;6.20;99.90;;;4.51;100.00;102285.22;2566619;30;136950;-41
2021/12/20 00:30:54;;;;;;;8.13;2.97;;;6.20;99.90;;;4.50;100.00;102278.09;2568856;30;137830;-40
2021/12/20 00:33:22;;;;;;;7.80;3.03;;;6.20;99.90;;;4.53;100.00;102272.44;2568209;30;137554;-40
2021/12/20 00:35:49;;;;;;;8.73;3.13;;;6.20;99.90;;;4.51;100.00;102266.31;2568006;30;137242;-40
2021/12/20 00:41:03;;;;;;;9.75;3.10;;;6.20;99.90;;;4.47;100.00;102271.13;2568243;30;138849;-41
2021/12/20 00:43:30;;;;;;;8.73;3.35;;;6.20;99.90;;;4.43;100.00;102267.84;2566720;30;137368;-41
2021/12/20 00:45:58;;;;;;;9.88;4.13;;;6.10;99.90;;;4.42;100.00;102266.13;2567796;30;138352;-40
2021/12/20 00:48:25;;;;;;;16.25;4.75;;;6.10;99.90;;;4.44;100.00;102266.84;2567598;30;138700;-40
2021/12/20 00:50:53;;;;;;;12.00;4.93;;;6.10;99.90;;;4.42;100.00;102268.84;2569615;30;139067;-40
2021/12/20 00:53:22;;;;;;;9.65;4.90;;;6.10;99.90;;;4.41;100.00;102269.00;2569121;30;137596;-40
2021/12/20 00:55:49;;;;;;;13.02;4.35;;;6.10;99.90;;;4.39;100.00;102274.53;2567492;30;138337;-41
2021/12/20 00:58:17;;;;;;;9.20;4.95;;;6.10;99.90;;;4.37;100.00;102273.81;2568201;30;136842;-41
2021/12/20 01:00:51;;;;;;;8.48;3.92;;;6.10;99.90;;;4.35;100.00;102273.09;2564926;30;138186;-40
2021/12/20 01:03:20;;;;;;;7.43;4.13;;;6.10;99.90;;;4.31;100.00;102263.53;2566578;30;137969;-40
2021/12/20 01:05:49;;;;;;;12.68;5.47;;;6.00;99.90;;;4.33;100.00;102266.97;2566648;30;138945;-40
2021/12/20 01:08:21;;;;;;;11.88;4.70;;;6.00;99.90;;;4.32;100.00;102262.56;2568362;30;137535;-40
2021/12/20 01:10:52;;;;;;;10.02;4.43;;;6.00;99.90;;;4.31;100.00;102260.84;2568075;30;139045;-40
2021/12/20 01:13:24;;;;;;;9.05;4.53;;;6.00;99.90;;;4.30;100.00;102256.44;2567536;30;138320;-40
2021/12/20 01:15:54;;;;;;;6.80;3.20;;;6.00;99.90;;;4.29;100.00;102263.66;2566389;30;138259;-40
2021/12/20 01:18:22;;;;;;;9.20;3.75;;;6.00;99.90;;;4.28;100.00;102269.22;2568061;30;137762;-40
2021/12/20 01:20:51;;;;;;;8.75;3.80;;;6.00;99.90;;;4.29;100.00;102265.53;2568625;30;137449;-40
2021/12/20 01:23:19;;;;;;;8.93;3.72;;;6.00;99.90;;;4.28;100.00;102277.34;2569164;30;137557;-40
2021/12/20 01:25:47;;;;;;;8.95;3.10;;;6.00;99.90;;;4.29;100.00;102266.38;2567867;30;138506;-41
2021/12/20 01:28:15;;;;;;;10.73;3.30;;;6.00;99.90;;;4.27;100.00;102273.75;2568044;30;136728;-41
2021/12/20 01:30:45;;;;;;;10.38;3.08;;;6.00;99.90;;;4.27;100.00;102271.06;2568108;30;139084;-41
2021/12/20 01:33:13;;;;;;;8.18;2.65;;;6.00;99.90;;;4.29;100.00;102270.94;2567218;30;137674;-40
2021/12/20 01:35:41;;;;;;;;;;;6.00;99.90;;;4.29;100.00;102276.34;2568911;30;137295;-41
2021/12/20 01:38:10;;;;;;;6.40;2.38;;;6.00;99.90;;;4.26;100.00;102282.00;2567897;30;137991;-40
2021/12/20 01:40:39;;;;;;;8.88;3.28;;;6.00;99.90;;;4.27;100.00;102271.06;2566638;30;139252;-41
2021/12/20 01:43:10;;;;;;;8.02;2.40;;;6.00;99.90;;;4.27;100.00;102270.22;2568193;30;137619;-41
2021/12/20 01:45:38;;;;;;;8.18;2.78;;;6.00;99.90;;;4.27;100.00;102273.75;2564909;30;137665;-40
2021/12/20 01:48:12;;;;;;;6.60;2.45;;;6.00;99.90;;;4.26;100.00;102277.44;2566666;30;138074;-41
2021/12/20 03:50:06;;;;;;;;;;;6.00;99.90;;;4.01;100.00;102265.25;1392207;30;2930398330;31
2021/12/20 03:52:34;;;;;;;13.75;2.42;;;5.80;99.90;;;4.02;100.00;102270.50;2568236;30;137769;-38
2021/12/20 03:55:02;;;;;;;13.93;2.58;;;5.70;99.90;;;3.99;100.00;102265.38;2567182;30;138991;-38
2021/12/20 03:57:29;;;;;;;8.90;2.17;;;5.70;99.90;;;3.92;100.00;102257.94;2567558;30;137504;-38
2021/12/20 03:59:57;;;;;;;6.28;2.20;;;5.70;99.90;;;3.89;100.00;102262.63;2568855;30;138287;-38
2021/12/20 04:02:25;;;;;;;8.80;2.10;;;5.70;99.90;;;3.89;100.00;102265.31;2570880;30;138249;-38
2021/12/20 04:04:53;;;;;;;6.63;1.90;;;5.70;99.90;;;3.89;100.00;102273.41;2568436;30;138169;-37
2021/12/20 04:07:20;;;;;;;12.15;2.03;;;5.60;99.90;;;3.89;100.00;102264.47;2566601;30;138059;-38
2021/12/20 04:09:48;;;;;;;14.32;2.08;;;5.60;99.90;;;3.87;100.00;102258.34;2568732;30;138363;-38
2021/12/20 04:12:15;;;;;;;12.15;2.38;;;5.60;99.90;;;3.86;100.00;102260.19;2568694;30;136892;-38
2021/12/20 04:14:43;;;;;;;9.65;2.00;;;5.60;99.90;;;3.82;100.00;102261.44;2567756;30;138326;-38
2021/12/20 04:17:10;;;;;;;10.00;2.15;;;5.60;99.90;;;3.80;100.00;102271.50;2568641;30;138303;-38
2021/12/20 04:19:38;;;;;;;12.50;2.22;;;5.60;99.90;;;3.92;100.00;102266.03;2571023;30;138542;-38
2021/12/20 04:22:05;;;;;;;10.38;2.13;;;5.60;99.90;;;3.92;100.00;102272.31;2568508;30;137440;-38
2021/12/20 04:24:33;;;;;;;12.05;1.65;;;5.60;99.90;;;3.92;100.00;102263.31;2567662;30;137695;-37
2021/12/20 04:27:01;;;;;;;12.55;1.80;;;5.60;99.90;;;3.94;100.00;102262.22;2567821;30;138636;-38
2021/12/20 04:29:29;;;;;;;8.13;1.98;;;5.60;99.90;;;3.94;100.00;102255.94;2565706;30;138317;-38
2021/12/20 04:31:58;;;;;;;9.35;1.55;;;5.70;99.90;;;3.98;100.00;102263.66;2566566;30;138324;-38
2021/12/20 04:34:26;;;;;;;9.48;1.77;;;5.70;99.90;;;3.89;100.00;102264.47;2565391;30;139299;-37
2021/12/20 04:36:54;;;;;;;9.23;2.10;;;5.60;99.90;;;3.88;100.00;102263.59;2568982;30;137686;-38
2021/12/20 04:39:25;;;;;;;;;;;5.60;99.90;;;3.91;100.00;102264.31;2566783;30;138288;-38
2021/12/20 04:41:53;;;;;;;13.88;2.55;;;5.60;99.90;;;3.89;100.00;102268.00;2568820;30;137089;-38
2021/12/20 04:44:20;;;;;;;8.90;1.92;;;5.60;99.90;;;3.87;100.00;102261.88;2566426;30;138003;-38
2021/12/20 04:46:48;;;;;;;8.20;1.70;;;5.60;99.90;;;3.87;100.00;102264.59;2568922;30;137017;-38
2021/12/20 04:49:16;;;;;;;8.10;1.55;;;5.60;99.90;;;3.86;100.00;102268.28;2568277;30;138929;-38
2021/12/20 04:51:44;;;;;;;10.02;1.80;;;5.60;99.90;;;3.82;100.00;102263.25;2569117;30;137755;-38
2021/12/20 04:54:14;;;;;;;5.82;1.52;;;5.60;99.90;;;3.79;100.00;102264.41;2566974;30;138111;-38
2021/12/20 04:56:41;;;;;;;7.43;1.42;;;5.60;99.90;;;3.82;100.00;102265.97;2570493;30;137130;-38
2021/12/20 04:59:09;;;;;;;11.05;2.13;;;5.60;99.90;;;3.79;100.00;102261.72;2572103;30;138288;-38
2021/12/20 05:01:36;;;;;;;8.65;1.80;;;5.50;99.90;;;3.81;100.00;102272.34;2569100;30;137565;-38
2021/12/20 05:04:04;;;;;;;8.18;1.33;;;5.50;99.90;;;3.77;100.00;102270.91;2569089;30;138355;-38
2021/12/20 05:06:33;;;;;;;8.40;1.50;;;5.50;99.90;;;3.69;100.00;102268.88;2568763;30;137649;-38
2021/12/20 05:09:04;;;;;;;8.00;1.50;;;5.50;99.90;;;3.67;100.00;102274.41;2568957;30;138528;-38
2021/12/20 05:11:36;;;;;;;7.07;1.40;;;5.40;99.90;;;3.69;100.00;102279.66;2569866;30;137705;-38
2021/12/20 05:14:03;;;;;;;4.47;1.48;;;5.40;99.90;;;3.66;100.00;102258.34;2568344;30;137976;-38
2021/12/20 05:16:31;;;;;;;13.52;1.95;;;5.40;99.90;;;3.63;100.00;102269.41;2568093;30;137095;-38
2021/12/20 05:18:58;;;;;;;5.03;1.42;;;5.40;99.90;;;3.60;100.00;102274.06;2570107;30;136905;-38
2021/12/20 05:21:26;;;;;;;7.90;1.73;;;5.40;99.90;;;3.57;100.00;102279.75;2570983;30;136767;-38
2021/12/20 05:23:53;;;;;;;10.05;1.65;;;5.30;99.90;;;3.54;100.00;102269.22;2569914;30;138527;-38
2021/12/20 05:26:21;;;;;;;8.13;1.20;;;5.30;99.90;;;3.54;100.00;102273.72;2568390;30;136684;-38
2021/12/20 05:28:49;;;;;;;8.48;1.65;;;5.30;99.90;;;3.51;100.00;102272.16;2569000;30;138361;-38
2021/12/20 05:31:16;;;;;;;4.80;1.77;;;5.30;99.90;;;3.51;100.00;102269.47;2570030;30;137333;-38
2021/12/20 05:33:44;;;;;;;11.43;2.33;;;5.30;99.90;;;3.51;100.00;102272.16;2567582;30;138571;-38
2021/12/20 05:36:11;;;;;;;9.40;1.75;;;5.30;99.90;;;3.55;100.00;102268.22;2569202;30;138275;-38
2021/12/20 05:38:47;;;;;;;11.52;1.63;;;5.30;99.90;;;3.55;100.00;102270.03;2569937;30;137697;-38
2021/12/20 05:41:15;;;;;;;;;;;5.30;99.90;;;3.53;100.00;102272.88;2567485;30;138033;-38
2021/12/20 05:43:42;;;;;;;10.20;1.58;;;5.30;99.90;;;3.54;100.00;102271.91;2569753;30;138381;-38
2021/12/20 05:46:12;;;;;;;9.77;1.75;;;5.30;99.90;;;3.53;100.00;102272.88;2570866;30;138412;-38
2021/12/20 05:48:39;;;;;;;11.32;1.80;;;5.30;99.90;;;3.53;100.00;102272.88;2567500;30;138725;-38
2021/12/20 05:51:07;;;;;;;7.38;1.40;;;5.30;99.90;;;3.55;100.00;102284.41;2570442;30;138298;-38
2021/12/20 05:53:34;;;;;;;6.45;1.50;;;5.30;99.90;;;3.56;100.00;102282.56;2569604;30;138447;-38
2021/12/20 05:56:02;;;;;;;10.27;2.08;;;5.30;99.90;;;3.51;100.00;102276.69;2570166;30;136831;-38
2021/12/20 05:58:30;;;;;;;6.18;1.50;;;5.30;99.90;;;3.40;100.00;102262.28;2567266;30;137586;-38
2021/12/20 06:00:58;;;;;;;7.60;1.20;;;5.30;99.90;;;3.48;100.00;102282.34;2572216;30;137672;-38
2021/12/20 06:03:26;;;;;;;8.10;1.30;;;5.20;99.90;;;3.45;100.00;102283.50;2568356;30;138781;-38
2021/12/20 06:05:54;;;;;;;8.45;1.70;;;5.20;99.90;;;3.42;100.00;102276.50;2570690;30;137049;-38
2021/12/20 06:08:21;;;;;;;10.93;1.92;;;5.20;99.90;;;3.44;100.00;102285.31;2567601;30;137029;-38
2021/12/20 06:10:49;;;;;;;8.93;1.63;;;5.20;99.90;;;3.48;100.00;102282.34;2569102;30;137774;-38
2021/12/20 06:13:16;;;;;;;4.38;1.52;;;5.20;99.90;;;3.54;100.00;102293.50;2568587;30;137394;-38
2021/12/20 06:15:44;;;;;;;9.13;1.98;;;5.20;99.90;;;3.51;100.00;102293.75;2569132;30;137730;-38
2021/12/20 06:18:12;;;;;;;12.05;1.80;;;5.20;99.90;;;3.44;100.00;102295.25;2569218;30;137191;-38
2021/12/20 06:20:42;;;;;;;;;;;5.20;99.90;;;3.47;100.00;102304.94;2568859;30;137430;-38
2021/12/20 06:23:11;;;;;;;9.68;1.50;;;5.20;99.90;;;3.49;100.00;102300.25;2570916;30;138310;-38
2021/12/20 06:25:39;;;;;;;11.32;1.77;;;5.20;99.90;;;3.52;100.00;102303.56;2566652;30;137663;-38
2021/12/20 06:28:07;;;;;;;14.95;1.90;;;5.20;99.90;;;3.66;100.00;102304.22;2569456;30;138468;-38
2021/12/20 06:30:34;;;;;;;12.90;1.83;;;5.30;99.90;;;3.70;100.00;102305.66;2571235;30;137851;-38
2021/12/20 06:33:02;;;;;;;8.25;1.52;;;5.40;99.90;;;3.70;100.00;102311.06;2568161;30;137910;-38
2021/12/20 06:35:34;;;;;;;10.80;1.80;;;5.40;99.90;;;3.74;100.00;102318.78;2568323;30;137503;-38
2021/12/20 06:38:04;;;;;;;18.00;2.13;;;5.40;99.90;;;3.77;100.00;102306.00;2566148;30;139562;-38
2021/12/20 06:40:34;;;;;;;14.57;2.03;;;5.50;99.90;;;3.76;100.00;102307.00;2569697;30;137979;-38
2021/12/20 06:43:04;;;;;;;12.63;2.55;;;5.50;99.90;;;3.81;100.00;102315.56;2568762;30;138416;-38
2021/12/20 06:45:33;;;;;;;8.15;2.47;;;5.50;99.90;;;3.79;100.00;102313.00;2567676;30;137584;-37
2021/12/20 06:48:02;;;;;;;14.57;2.25;;;5.50;99.90;;;3.73;100.00;102311.69;2569350;30;138986;-38
2021/12/20 06:50:29;;;;;;;12.95;2.10;;;5.50;99.90;;;3.59;100.00;102302.06;2569265;30;138573;-38
2021/12/20 06:52:57;;;;;;;11.15;1.85;;;5.40;99.90;;;3.55;100.00;102316.81;2568451;30;138907;-38
2021/12/20 06:55:25;;;;;;;;;;;5.30;99.90;;;3.40;100.00;102312.69;2569334;30;137070;-37
2021/12/20 06:57:53;;;;;;;11.85;2.42;;;5.30;99.90;;;3.33;100.00;102324.97;2568913;30;138222;-38
2021/12/20 07:00:21;;;;;;;;;;;5.20;99.90;;;3.19;100.00;102318.03;2569769;30;137655;-38
2021/12/20 07:02:49;;;;;;;10.98;2.10;;;5.10;99.90;;;3.12;100.00;102323.94;2564685;30;138679;-38
2021/12/20 07:05:21;;;;;;;11.23;1.85;;;5.00;99.90;;;3.02;100.00;102331.91;2568628;30;137596;-38
2021/12/20 07:07:48;;;;;;;12.27;2.55;;;4.90;99.90;;;2.92;100.00;102328.28;2569447;30;138544;-37
2021/12/20 07:10:16;;;;;;;10.10;1.88;;;4.80;99.90;;;2.91;100.00;102329.22;2568763;30;137525;-38
2021/12/20 07:12:44;;;;;;;8.73;1.63;;;4.80;99.90;;;2.78;100.00;102332.06;2568074;30;138430;-38
2021/12/20 07:15:14;;;;;;;9.98;1.85;;;4.60;99.90;;;2.67;100.00;102334.78;2569441;30;137590;-37
2021/12/20 07:17:42;;;;;;;11.85;2.33;;;4.60;99.90;;;2.51;100.00;102335.16;2570988;30;137402;-38
2021/12/20 07:20:11;;;;;;;9.77;1.77;;;4.50;99.90;;;2.42;100.00;102347.50;2567169;30;137382;-38
2021/12/20 07:22:39;;;;;;;11.88;1.98;;;4.40;99.90;;;2.29;100.00;102340.41;2568127;30;138352;-38
2021/12/20 07:25:07;;;;;;;12.35;2.33;;;4.20;99.90;;;2.25;100.00;102344.28;2569120;30;137046;-37
2021/12/20 07:27:35;;;;;;;8.48;1.65;;;4.20;99.90;;;2.16;100.00;102339.63;2569520;30;137933;-38
2021/12/20 07:30:05;;;;;;;11.05;2.58;;;4.10;99.90;;;2.13;100.00;102356.03;2568566;30;136927;-38
2021/12/20 07:32:32;;;;;;;10.15;2.55;;;4.00;99.90;;;2.04;100.00;102352.22;2567281;30;138269;-38
2021/12/20 07:35:00;;;;;;;8.13;1.80;;;3.90;99.90;;;1.92;100.00;102353.19;2569224;30;137429;-38
2021/12/20 07:37:28;;;;;;;10.30;2.08;;;3.80;99.90;;;1.82;100.00;102353.88;2566894;30;138434;-38
2021/12/20 07:39:55;;;;;;;;;;;3.80;99.90;;;1.73;100.00;102359.97;2569741;30;138234;-38
2021/12/20 07:42:23;;;;;;;9.77;1.90;;;3.70;99.90;;;1.64;100.00;102355.28;2568721;30;139274;-38
2021/12/20 07:44:54;;;;;;;12.05;2.03;;;3.60;99.90;;;1.53;100.00;102353.41;2568000;30;136817;-40
2021/12/20 07:47:41;;;;;;;7.20;2.00;;;3.50;99.90;;;1.41;100.00;102350.63;2568871;30;138419;-38
2021/12/20 07:50:10;;;;;;;8.20;1.63;;;3.40;99.90;;;1.34;100.00;102362.84;2568174;30;138547;-38
2021/12/20 07:52:39;;;;;;;6.85;1.75;;;3.30;99.90;;;1.25;100.00;102350.91;2569137;30;139080;-38
2021/12/20 07:55:08;;;;;;;11.40;2.25;;;3.30;99.90;;;1.26;100.00;102358.00;2565936;30;137851;-37
2021/12/20 07:57:37;;;;;;;11.40;1.77;;;3.20;99.90;;;1.21;100.00;102357.50;2568193;30;138281;-38
2021/12/20 08:00:07;;;;;;;13.45;2.20;;;3.20;99.90;;;1.21;100.00;102367.41;2571374;30;138355;-38
2021/12/20 08:02:41;;;;;;;10.73;2.35;;;3.10;99.90;;;1.14;100.00;102358.94;2568479;30;138116;-38
2021/12/20 08:05:10;;;;;;;;;;;3.10;99.90;;;1.12;100.00;102361.72;2567832;30;137328;-37
2021/12/20 08:07:37;;;;;;;12.20;2.28;;;3.10;99.90;;;1.14;100.00;102365.16;2570301;30;138185;-38
2021/12/20 08:10:06;;;;;;;9.75;2.03;;;3.00;99.90;;;1.17;100.00;102372.16;2568686;30;136996;-38
2021/12/20 08:12:34;;;;;;;13.52;3.10;;;3.00;99.90;;;1.21;100.00;102364.72;2570212;30;138290;-38
2021/12/20 08:15:03;;;;;;;12.98;2.53;;;3.10;99.90;;;1.21;100.00;102359.34;2570437;30;138934;-38
2021/12/20 08:17:31;;;;;;;9.23;2.10;;;3.10;99.90;;;1.28;100.00;102358.75;2567916;30;139043;-38
2021/12/20 08:19:59;;;;;;;14.90;2.72;;;3.10;99.90;;;1.27;100.00;102359.72;2568740;30;137424;-37
2021/12/20 08:22:27;;;;;;;8.65;2.30;;;3.20;99.90;;;1.29;100.00;102371.22;2571236;30;138285;-38
2021/12/20 08:24:55;;;;;;;14.30;3.33;;;3.10;99.90;;;1.28;100.00;102361.44;2567289;30;137140;-38
2021/12/20 08:27:22;;;;;;;10.25;2.58;;;3.10;99.90;;;1.22;100.00;102361.91;2570250;30;139185;-38
2021/12/20 08:29:50;;;;;;;6.53;1.90;;;3.10;99.90;;;1.30;100.00;102374.78;2573461;30;138365;-38
2021/12/20 08:32:18;;;;;;;14.98;2.33;;;3.10;99.90;;;1.29;100.00;102373.91;2572012;30;137811;-38
2021/12/20 08:34:48;;;;;;;10.80;2.47;;;3.10;99.90;;;1.32;100.00;102370.16;2569534;30;136861;-38
2021/12/20 08:37:16;;;;;;;9.52;2.38;;;3.20;99.90;;;1.38;100.00;102377.75;2573576;30;138971;-38
2021/12/20 08:39:44;;;;;;;11.13;2.90;;;3.20;99.90;;;1.42;100.00;102379.25;2568345;30;136891;-38
2021/12/20 08:42:11;;;;;;;10.63;3.22;;;3.20;99.90;;;1.49;100.00;102378.81;2570022;30;136628;-38
2021/12/20 08:44:39;;;;;;;14.32;3.03;;;3.30;99.90;;;1.56;100.00;102377.38;2567582;30;137710;-38
2021/12/20 08:47:06;;;;;;;14.02;3.40;;;3.30;99.90;;;1.60;100.00;102383.41;2569948;30;139277;-38
2021/12/20 08:49:34;;;;;;;13.45;2.45;;;3.40;99.90;;;1.65;100.00;102379.38;2567242;30;137407;-38
2021/12/20 08:52:05;;;;;;;11.68;3.75;;;3.40;99.90;;;1.81;100.00;102384.44;2568951;30;139314;-38
2021/12/20 08:54:33;;;;;;;21.55;3.50;;;3.50;99.90;;;1.86;100.00;102389.50;2570256;30;138181;-38
2021/12/20 08:57:01;;;;;;;22.73;3.65;;;3.60;99.90;;;1.99;100.00;102392.97;2567106;30;138646;-38
2021/12/20 08:59:28;;;;;;;19.23;3.42;;;3.70;99.90;;;2.11;100.00;102393.84;2570460;30;137737;-38
2021/12/20 09:01:57;;;;;;;13.80;3.30;;;3.80;99.90;;;2.14;100.00;102403.53;2569591;30;139295;-38
2021/12/20 09:04:25;;;;;;;17.65;3.65;;;3.80;99.90;;;2.23;100.00;102401.97;2570100;30;137542;-38
2021/12/20 09:06:53;;;;;;;15.40;4.18;;;3.90;99.90;;;2.23;100.00;102402.81;2570612;30;137312;-38
2021/12/20 09:09:21;;;;;;;16.58;3.58;;;3.90;99.90;;;2.30;100.00;102404.06;2570624;30;137068;-38
2021/12/20 09:11:48;;;;;;;13.70;2.97;;;4.00;99.90;;;2.40;100.00;102401.53;2571178;30;139098;-40
2021/12/20 09:14:17;;;;;;;14.77;3.10;;;4.10;99.90;;;2.49;100.00;102396.38;2569670;30;136969;-39
2021/12/20 09:16:44;;;;;;;25.23;3.63;;;4.20;99.90;;;2.57;100.00;102404.72;2572203;30;138225;-40
2021/12/20 09:19:12;;;;;;;18.95;3.63;;;4.30;99.90;;;2.62;100.00;102407.91;2570088;30;136855;-40
2021/12/20 09:21:40;;;;;;;21.88;3.20;;;4.30;99.90;;;2.69;100.00;102410.97;2568500;30;137802;-40
2021/12/20 09:24:09;;;;;;;17.83;3.60;;;4.40;99.90;;;2.68;100.00;102415.53;2570088;30;137425;-39
2021/12/20 09:26:38;;;;;;;16.58;2.97;;;4.40;99.90;;;2.73;100.00;102418.72;2568428;30;138027;-40
2021/12/20 09:29:05;;;;;;;13.68;2.95;;;4.40;99.90;;;2.83;100.00;102420.66;2566135;30;138390;-40
2021/12/20 09:31:33;;;;;;;12.18;3.83;;;4.50;99.90;;;2.88;100.00;102413.06;2568666;30;138171;-40
2021/12/20 09:34:01;;;;;;;22.05;3.83;;;4.60;99.90;;;3.01;100.00;102421.91;2568149;30;137574;-40
2021/12/20 09:36:29;;;;;;;19.13;3.13;;;4.70;99.90;;;3.00;100.00;102425.56;2568959;30;138259;-40
2021/12/20 09:38:57;;;;;;;17.40;3.88;;;4.70;99.90;;;3.04;100.00;102434.25;2571485;30;136681;-40
2021/12/20 09:44:09;;;;;;;19.40;3.58;;;4.80;99.90;;;3.16;100.00;102429.72;2568092;30;137759;-40
2021/12/20 09:46:39;;;;;;;16.55;3.25;;;4.80;99.90;;;3.20;100.00;102431.22;2570477;30;138295;-40
2021/12/20 09:49:10;;;;;;;19.90;4.55;;;4.90;99.90;;;3.26;100.00;102429.81;2567483;30;137711;-38
2021/12/20 09:51:37;;;;;;;15.40;3.78;;;4.90;99.90;;;3.30;100.00;102426.78;2577207;30;139170;-41
2021/12/20 09:54:05;;;;;;;19.45;4.05;;;5.00;99.90;;;3.40;100.00;102426.00;2567883;30;137248;-41
2021/12/20 09:56:38;;;;;;;17.00;3.72;;;5.10;99.90;;;3.41;100.00;102431.28;2567504;30;138109;-40
2021/12/20 09:59:16;;;;;;;18.58;3.92;;;5.10;99.90;;;3.49;100.00;102419.88;2566779;30;136713;-40
2021/12/20 10:01:45;;;;;;;20.20;4.53;;;5.10;99.90;;;3.50;100.00;102418.88;2566992;30;138367;-40
2021/12/20 10:04:13;;;;;;;16.75;4.40;;;5.10;99.90;;;3.57;100.00;102427.31;2566564;30;137606;-40
2021/12/20 10:06:42;;;;;;;;;;;5.20;99.90;;;3.60;100.00;102422.53;2566904;30;140198;-41
2021/12/20 10:09:13;;;;;;;17.37;4.13;;;5.30;99.90;;;3.68;100.00;102426.41;2568504;30;136795;-40
2021/12/20 10:11:43;;;;;;;24.40;5.10;;;5.30;99.90;;;3.70;100.00;102427.16;2567101;30;138111;-40
2021/12/20 10:14:16;;;;;;;21.23;5.20;;;5.40;99.90;;;3.83;100.00;102425.16;2568402;30;137875;-41
2021/12/20 10:16:48;;;;;;;29.02;5.15;;;5.50;99.90;;;3.86;100.00;102432.16;2567826;30;137188;-41
2021/12/20 10:19:34;;;;;;;18.55;4.13;;;5.50;99.90;;;3.89;100.00;102421.94;2569179;30;137649;-41
2021/12/20 10:22:29;;;;;;;16.70;4.10;;;5.60;99.90;;;4.00;100.00;102433.69;2567720;30;137091;-41
2021/12/20 10:24:58;;;;;;;17.35;3.78;;;5.60;99.90;;;4.04;100.00;102432.44;2568192;30;138747;-41
2021/12/20 10:27:36;;;;;;;25.10;4.90;;;5.60;99.90;;;4.09;100.00;102426.63;2568289;30;137369;-41
2021/12/20 10:30:26;;;;;;;18.70;4.78;;;5.70;99.90;;;4.22;100.00;102429.16;2567652;30;137098;-41
2021/12/20 10:32:56;;;;;;;22.08;5.07;;;5.80;99.90;;;4.28;98.28;102423.25;2566199;30;138524;-40
2021/12/20 10:35:27;;;;;;;22.90;5.00;;;5.80;99.90;;;4.36;98.13;102426.13;2566906;30;137034;-40
2021/12/20 10:38:03;;;;;;;18.35;4.80;;;5.90;99.90;;;4.40;97.18;102424.88;2568929;30;138509;-41
2021/12/20 10:40:32;;;;;;;21.42;4.60;;;6.00;99.90;;;4.47;97.71;102426.03;2567811;30;136809;-41
2021/12/20 10:43:06;;;;;;;20.50;4.25;;;6.10;99.90;;;4.49;95.40;102433.16;2568958;30;138194;-40
2021/12/20 10:45:33;;;;;;;14.68;4.40;;;6.10;99.90;;;4.54;96.30;102430.94;2565618;30;136822;-41
2021/12/20 10:48:10;;;;;;;26.50;4.30;;;6.10;99.90;;;4.57;95.29;102430.69;2568455;30;139261;-40
2021/12/20 10:50:42;;;;;;;18.63;4.30;;;6.20;99.90;;;4.62;94.06;102433.81;2569130;30;137661;-41
2021/12/20 10:53:14;;;;;;;20.48;3.97;;;6.20;99.90;;;4.63;94.93;102421.16;2567670;30;139108;-41
2021/12/20 10:55:54;;;;;;;18.42;4.63;;;6.30;99.90;;;4.66;94.89;102427.16;2567336;30;138246;-40
2021/12/20 10:58:38;;;;;;;15.85;3.88;;;6.30;99.90;;;4.68;94.37;102417.06;2565131;30;138351;-40
2021/12/20 11:04:12;;;;;;;18.15;3.55;;;6.30;99.90;;;4.75;92.68;102406.56;2565643;30;139371;-41
2021/12/20 11:09:33;;;;;;;13.80;2.85;;;6.40;99.90;;;4.85;90.84;102420.16;2568271;30;138141;-40
2021/12/20 11:12:25;;;;;;;11.23;3.38;;;6.40;99.90;;;4.89;90.32;102413.47;2568152;30;139090;-41
2021/12/20 11:15:00;;;;;;;12.02;3.17;;;6.50;99.90;;;4.97;91.27;102413.63;2566402;30;139203;-41
2021/12/20 11:17:30;;;;;;;12.13;2.92;;;6.50;99.90;;;4.97;89.04;102410.94;2569030;30;137569;-41
2021/12/20 11:19:58;;;;;;;14.32;2.75;;;6.60;99.90;;;4.97;86.75;102410.09;2568124;30;138395;-40
2021/12/20 11:22:31;;;;;;;15.75;3.13;;;6.60;99.90;;;4.96;87.39;102419.19;2568116;30;137519;-40
2021/12/20 11:25:03;;;;;;;10.50;3.00;;;6.60;99.90;;;5.06;88.71;102411.13;2567527;30;139236;-40
2021/12/20 11:27:46;;;;;;;19.90;3.20;;;6.70;99.90;;;5.09;87.72;102418.97;2568714;30;138520;-40
2021/12/20 11:30:18;;;;;;;14.85;3.55;;;6.70;99.90;;;5.16;85.68;102420.97;2568028;30;137284;-40
2021/12/20 11:32:48;;;;;;;21.23;3.63;;;6.80;99.90;;;5.16;84.79;102409.28;2567234;30;137106;-41
2021/12/20 11:35:21;;;;;;;16.90;2.90;;;6.80;99.90;;;5.17;86.17;102405.59;2567088;30;137978;-41
2021/12/20 11:37:49;;;;;;;14.10;3.20;;;6.80;99.90;;;5.21;85.85;102404.31;2567258;30;136766;-40
2021/12/20 11:40:20;;;;;;;16.58;3.67;;;6.90;99.90;;;5.21;84.30;102401.63;2567877;30;138356;-41
2021/12/20 11:42:52;;;;;;;15.73;2.95;;;6.90;99.90;;;5.25;82.98;102411.16;2567766;30;136742;-41
2021/12/20 11:45:20;;;;;;;18.95;3.35;;;6.90;99.90;;;5.24;81.88;102414.84;2567215;30;137286;-41
2021/12/20 11:48:17;;;;;;;12.95;3.05;;;6.90;99.90;;;5.27;83.00;102403.75;2567594;30;137735;-40
2021/12/20 11:50:45;;;;;;;14.07;2.95;;;6.90;99.90;;;5.31;79.00;102407.94;2567947;30;138252;-41
2021/12/20 11:53:15;;;;;;;;;;;6.90;99.90;;;5.30;79.64;102398.09;2567447;30;138263;-40
2021/12/20 11:55:48;;;;;;;10.43;2.15;;;6.90;99.90;;;5.41;82.56;102407.06;2567677;30;137467;-41
2021/12/20 11:58:17;;;;;;;11.80;2.20;;;7.00;99.90;;;5.37;78.27;102403.78;2567819;30;137448;-41
2021/12/20 12:00:54;;;;;;;9.25;2.00;;;7.00;99.90;;;5.40;81.32;102408.06;2568472;30;137632;-41
2021/12/20 12:03:35;;;;;;;12.38;2.28;;;7.00;99.90;;;5.41;77.75;102396.25;2565539;30;137615;-41
2021/12/20 12:06:11;;;;;;;9.70;2.15;;;7.00;99.90;;;5.43;78.14;102391.56;2568897;30;138204;-41
2021/12/20 12:08:58;;;;;;;10.60;1.92;;;7.00;99.90;;;5.42;77.70;102389.84;2568132;30;136846;-41
2021/12/20 12:11:41;;;;;;;9.77;1.80;;;7.00;99.90;;;5.46;76.04;102393.97;2569532;30;139156;-41
2021/12/20 12:14:23;;;;;;;6.40;1.88;;;7.00;99.90;;;5.47;75.82;102395.69;2566584;30;138424;-40
2021/12/20 12:17:03;;;;;;;7.60;1.92;;;7.10;99.90;;;5.47;75.63;102395.69;2568938;30;138554;-41
2021/12/20 12:19:52;;;;;;;6.93;1.67;;;7.10;99.90;;;5.47;70.97;102398.38;2567657;30;137002;-40
2021/12/20 12:22:43;;;;;;;7.85;1.67;;;7.10;99.90;;;5.45;74.20;102397.69;2568608;30;139296;-40
2021/12/20 12:25:44;;;;;;;6.60;1.10;;;7.10;99.90;;;5.48;71.13;102397.41;2567955;30;136960;-42
2021/12/20 12:28:14;;;;;;;5.43;1.42;;;7.10;99.90;;;5.49;72.11;102393.69;2568776;30;139213;-41
2021/12/20 12:30:54;;;;;;;3.47;1.30;;;7.10;99.90;;;5.53;65.61;102389.69;2564967;30;137488;-41
2021/12/20 12:33:25;;;;;;;4.78;1.15;;;7.10;99.90;;;5.55;62.75;102393.13;2565990;30;138279;-41
2021/12/20 12:35:56;;;;;;;6.40;1.10;;;7.20;99.90;;;5.57;62.14;102391.16;2567690;30;137932;-40